createdAt,value
2019-06-01T00:00:12.052Z,22.80
2019-06-01T00:02:40.803Z,17.80
2019-06-01T00:05:10.244Z,28.50
2019-06-01T00:07:39.323Z,21.37
2019-06-01T00:10:09.060Z,16.33
2019-06-01T00:12:39.312Z,21.50
2019-06-01T00:15:08.796Z,20.23
2019-06-01T00:17:37.937Z,17.00
2019-06-01T00:20:07.010Z,16.70
2019-06-01T00:22:36.173Z,20.67
2019-06-01T00:25:06.364Z,21.00
2019-06-01T00:27:35.504Z,24.47
2019-06-01T00:30:04.983Z,24.80
2019-06-01T00:32:34.185Z,19.90
2019-06-01T00:35:03.289Z,19.33
2019-06-01T00:37:32.522Z,18.17
2019-06-01T00:40:02.126Z,17.10
2019-06-01T00:42:31.211Z,17.10
2019-06-01T00:45:00.382Z,14.90
2019-06-01T00:47:29.433Z,15.37
2019-06-01T00:49:58.568Z,41.93
2019-06-01T00:52:27.663Z,17.60
2019-06-01T00:54:56.847Z,16.33
2019-06-01T00:57:25.922Z,14.17
2019-06-01T00:59:55.160Z,16.07
2019-06-01T01:02:24.320Z,14.97
2019-06-01T01:05:11.747Z,18.50
2019-06-01T01:07:40.937Z,16.90
2019-06-01T01:10:10.252Z,14.43
2019-06-01T01:12:57.035Z,17.43
2019-06-01T01:15:26.391Z,16.30
2019-06-01T01:17:56.182Z,18.87
2019-06-01T01:20:25.426Z,17.57
2019-06-01T01:22:54.612Z,21.47
2019-06-01T01:25:23.818Z,21.53
2019-06-01T01:27:52.983Z,17.00
2019-06-01T01:30:22.362Z,16.87
2019-06-01T01:32:51.820Z,25.63
2019-06-01T01:35:21.060Z,18.60
2019-06-01T01:37:50.185Z,20.00
2019-06-01T01:40:19.388Z,18.53
2019-06-01T01:42:48.805Z,15.23
2019-06-01T01:45:18.053Z,13.57
2019-06-01T01:47:47.077Z,15.77
2019-06-01T01:50:16.320Z,17.30
2019-06-01T01:52:46.050Z,15.37
2019-06-01T01:55:15.751Z,17.63
2019-06-01T01:57:44.795Z,15.63
2019-06-01T02:00:14.438Z,17.70
2019-06-01T02:02:43.655Z,16.60
2019-06-01T02:05:13.219Z,17.10
2019-06-01T02:07:42.340Z,17.80
2019-06-01T02:10:11.920Z,21.43
2019-06-01T02:12:40.943Z,20.93
2019-06-01T02:15:10.682Z,19.80
2019-06-01T02:17:39.853Z,17.73
2019-06-01T02:20:09.007Z,27.53
2019-06-01T02:22:38.034Z,20.67
2019-06-01T02:25:07.709Z,18.53
2019-06-01T02:27:37.075Z,17.53
2019-06-01T02:30:06.346Z,17.40
2019-06-01T02:32:35.514Z,20.17
2019-06-01T02:35:05.259Z,17.13
2019-06-01T02:37:34.339Z,19.23
2019-06-01T02:40:05.463Z,16.00
2019-06-01T02:42:34.810Z,18.23
2019-06-01T02:45:05.606Z,15.53
2019-06-01T02:47:34.811Z,15.27
2019-06-01T02:50:04.870Z,14.40
2019-06-01T02:52:34.926Z,19.53
2019-06-01T02:55:04.665Z,15.33
2019-06-01T02:57:34.108Z,15.60
2019-06-01T03:00:04.846Z,16.47
2019-06-01T03:02:34.396Z,14.00
2019-06-01T03:05:05.399Z,15.63
2019-06-01T03:07:35.411Z,18.70
2019-06-01T03:10:05.434Z,16.90
2019-06-01T03:12:38.531Z,20.73
2019-06-01T03:15:08.682Z,18.03
2019-06-01T03:17:39.454Z,16.93
2019-06-01T03:20:08.607Z,16.27
2019-06-01T03:22:40.177Z,17.50
2019-06-01T03:25:09.979Z,20.30
2019-06-01T03:27:41.991Z,18.33
2019-06-01T03:30:15.257Z,18.83
2019-06-01T03:32:43.023Z,19.10
2019-06-01T03:35:13.106Z,19.03
2019-06-01T03:37:42.331Z,15.57
2019-06-01T03:40:23.218Z,14.97
2019-06-01T03:42:42.489Z,16.67
2019-06-01T03:45:12.584Z,21.37
2019-06-01T03:47:42.293Z,16.60
2019-06-01T03:50:11.485Z,17.73
2019-06-01T03:52:40.578Z,16.47
2019-06-01T03:55:09.965Z,17.60
2019-06-01T03:57:39.118Z,18.37
2019-06-01T04:00:09.389Z,18.00
2019-06-01T04:02:38.607Z,13.87
2019-06-01T04:05:09.273Z,15.77
2019-06-01T04:07:39.108Z,17.03
2019-06-01T04:10:09.813Z,15.57
2019-06-01T04:12:39.056Z,16.90
2019-06-01T04:15:11.610Z,19.03
2019-06-01T04:17:39.073Z,15.40
2019-06-01T04:20:08.314Z,12.90
2019-06-01T04:22:37.359Z,14.00
2019-06-01T04:25:08.169Z,22.00
2019-06-01T04:27:37.595Z,19.83
2019-06-01T04:30:07.218Z,12.43
2019-06-01T04:32:48.956Z,13.67
2019-06-01T04:35:07.452Z,18.30
2019-06-01T04:37:36.647Z,13.40
2019-06-01T04:40:07.348Z,13.80
2019-06-01T04:42:36.481Z,15.10
2019-06-01T04:45:06.896Z,12.93
2019-06-01T04:47:36.692Z,15.80
2019-06-01T04:50:06.680Z,12.90
2019-06-01T04:52:35.787Z,13.30
2019-06-01T04:55:05.244Z,10.07
2019-06-01T04:57:34.358Z,18.30
2019-06-01T05:00:09.350Z,9.07
2019-06-01T05:02:34.463Z,14.23
2019-06-01T05:05:04.859Z,9.30
2019-06-01T05:07:34.114Z,12.23
2019-06-01T05:10:03.243Z,10.00
2019-06-01T05:12:32.714Z,9.03
2019-06-01T05:15:01.856Z,10.20
2019-06-01T05:17:31.033Z,11.93
2019-06-01T05:20:00.221Z,8.47
2019-06-01T05:22:29.336Z,16.20
2019-06-01T05:24:58.520Z,7.17
2019-06-01T05:27:27.697Z,11.63
2019-06-01T05:29:56.719Z,9.53
2019-06-01T05:32:25.894Z,10.27
2019-06-01T05:34:55.060Z,8.70
2019-06-01T05:37:24.224Z,7.10
2019-06-01T05:39:53.348Z,7.93
2019-06-01T05:42:22.434Z,7.40
2019-06-01T05:44:51.531Z,9.70
2019-06-01T05:47:20.660Z,9.97
2019-06-01T05:49:49.896Z,7.40
2019-06-01T05:52:19.669Z,9.40
2019-06-01T05:54:49.090Z,7.40
2019-06-01T05:57:19.349Z,7.37
2019-06-01T05:59:48.455Z,6.77
2019-06-01T06:02:17.551Z,6.40
2019-06-01T06:04:46.624Z,5.87
2019-06-01T06:07:16.822Z,8.50
2019-06-01T06:09:46.054Z,13.73
2019-06-01T06:12:15.504Z,7.77
2019-06-01T06:14:44.575Z,9.40
2019-06-01T06:17:15.541Z,6.90
2019-06-01T06:19:44.346Z,6.60
2019-06-01T06:22:14.172Z,7.93
2019-06-01T06:24:43.354Z,6.80
2019-06-01T06:27:12.499Z,14.23
2019-06-01T06:29:41.559Z,10.10
2019-06-01T06:32:10.670Z,11.40
2019-06-01T06:34:39.788Z,6.90
2019-06-01T06:37:08.965Z,6.90
2019-06-01T06:39:38.195Z,6.77
2019-06-01T06:42:07.293Z,6.93
2019-06-01T06:44:36.387Z,8.90
2019-06-01T06:47:05.612Z,9.17
2019-06-01T06:49:34.671Z,6.70
2019-06-01T06:52:03.742Z,5.93
2019-06-01T06:54:32.843Z,9.70
2019-06-01T06:57:01.982Z,6.00
2019-06-01T06:59:31.038Z,5.17
2019-06-01T07:02:00.360Z,4.73
2019-06-01T07:04:29.493Z,4.60
2019-06-01T07:06:58.519Z,5.20
2019-06-01T07:09:28.310Z,6.67
2019-06-01T07:11:57.728Z,4.60
2019-06-01T07:14:27.550Z,4.73
2019-06-01T07:16:56.791Z,7.23
2019-06-01T07:19:25.830Z,4.93
2019-06-01T07:21:54.792Z,6.70
2019-06-01T07:24:23.961Z,5.50
2019-06-01T07:26:53.199Z,4.63
2019-06-01T07:29:22.327Z,4.80
2019-06-01T07:31:51.413Z,5.13
2019-06-01T07:34:30.730Z,5.90
2019-06-01T07:36:51.243Z,6.00
2019-06-01T07:39:20.632Z,8.43
2019-06-01T07:41:49.844Z,5.03
2019-06-01T07:44:18.950Z,5.80
2019-06-01T07:46:47.976Z,7.17
2019-06-01T07:49:17.107Z,4.43
2019-06-01T07:51:46.127Z,4.53
2019-06-01T07:54:15.490Z,4.83
2019-06-01T07:56:44.756Z,6.33
2019-06-01T07:59:13.775Z,7.47
2019-06-01T08:01:42.902Z,5.33
2019-06-01T08:04:12.033Z,3.83
2019-06-01T08:06:45.639Z,12.20
2019-06-01T08:09:11.883Z,4.03
2019-06-01T08:11:40.977Z,5.93
2019-06-01T08:14:10.114Z,4.57
2019-06-01T08:16:39.204Z,3.60
2019-06-01T08:19:08.337Z,5.43
2019-06-01T08:21:37.510Z,4.17
2019-06-01T08:24:07.043Z,4.43
2019-06-01T08:26:36.312Z,4.20
2019-06-01T08:29:05.580Z,5.30
2019-06-01T08:31:34.793Z,7.00
2019-06-01T08:34:04.272Z,4.40
2019-06-01T08:36:33.949Z,11.33
2019-06-01T08:39:03.259Z,6.70
2019-06-01T08:41:33.609Z,3.50
2019-06-01T08:44:02.823Z,5.10
2019-06-01T08:46:31.860Z,4.70
2019-06-01T08:49:00.995Z,4.50
2019-06-01T08:51:30.184Z,3.73
2019-06-01T08:53:59.215Z,6.20
2019-06-01T08:56:28.329Z,8.57
2019-06-01T08:58:57.504Z,7.03
2019-06-01T09:01:26.903Z,3.53
2019-06-01T09:03:55.959Z,6.23
2019-06-01T09:06:25.096Z,4.93
2019-06-01T09:08:54.571Z,5.70
2019-06-01T09:11:24.974Z,4.60
2019-06-01T09:13:54.157Z,3.70
2019-06-01T09:16:23.431Z,3.27
2019-06-01T09:18:52.569Z,4.00
2019-06-01T09:21:21.570Z,4.50
2019-06-01T09:23:50.899Z,3.40
2019-06-01T09:26:20.055Z,3.90
2019-06-01T09:28:49.151Z,4.80
2019-06-01T09:31:18.234Z,5.73
2019-06-01T09:33:47.355Z,6.90
2019-06-01T09:36:16.554Z,6.50
2019-06-01T09:38:45.744Z,6.73
2019-06-01T09:41:15.138Z,3.33
2019-06-01T09:43:44.292Z,8.00
2019-06-01T09:46:13.664Z,4.93
2019-06-01T09:48:42.818Z,2.80
2019-06-01T09:51:11.998Z,8.83
2019-06-01T09:53:41.114Z,3.60
2019-06-01T09:56:10.299Z,6.07
2019-06-01T09:58:39.686Z,3.47
2019-06-01T10:01:08.898Z,9.27
2019-06-01T10:03:38.544Z,9.60
2019-06-01T10:06:08.223Z,2.83
2019-06-01T10:08:38.164Z,5.30
2019-06-01T10:11:07.374Z,2.77
2019-06-01T10:13:36.537Z,5.60
2019-06-01T10:16:05.804Z,3.70
2019-06-01T10:18:35.355Z,4.03
2019-06-01T10:21:05.884Z,10.50
2019-06-01T10:23:36.410Z,3.27
2019-06-01T10:26:06.144Z,3.37
2019-06-01T10:28:35.746Z,4.00
2019-06-01T10:31:04.975Z,2.80
2019-06-01T10:33:34.825Z,2.77
2019-06-01T10:36:19.261Z,4.33
2019-06-01T10:38:35.172Z,3.80
2019-06-01T10:41:04.348Z,4.80
2019-06-01T10:43:33.765Z,3.07
2019-06-01T10:46:02.768Z,2.43
2019-06-01T10:48:32.846Z,4.90
2019-06-01T10:51:02.563Z,2.80
2019-06-01T10:53:32.037Z,6.80
2019-06-01T10:56:01.593Z,2.13
2019-06-01T10:58:30.692Z,2.10
2019-06-01T11:00:59.807Z,3.17
2019-06-01T11:03:28.816Z,2.20
2019-06-01T11:05:57.892Z,2.53
2019-06-01T11:08:27.111Z,2.77
2019-06-01T11:10:56.195Z,2.50
2019-06-01T11:13:25.440Z,2.60
2019-06-01T11:15:54.541Z,2.50
2019-06-01T11:18:23.599Z,1.87
2019-06-01T11:20:52.654Z,3.10
2019-06-01T11:23:22.192Z,3.50
2019-06-01T11:25:51.409Z,14.13
2019-06-01T11:28:20.481Z,6.17
2019-06-01T11:30:49.659Z,2.93
2019-06-01T11:33:18.807Z,2.23
2019-06-01T11:35:47.970Z,3.80
2019-06-01T11:38:16.971Z,1.80
2019-06-01T11:40:46.159Z,2.73
2019-06-01T11:43:15.294Z,3.27
2019-06-01T11:45:45.220Z,3.43
2019-06-01T11:48:14.392Z,2.53
2019-06-01T11:50:43.529Z,2.60
2019-06-01T11:53:12.638Z,2.60
2019-06-01T11:55:41.829Z,4.07
2019-06-01T11:58:10.961Z,2.97
2019-06-01T12:00:40.009Z,3.20
2019-06-01T12:03:09.106Z,2.20
2019-06-01T12:05:38.266Z,3.23
2019-06-01T12:08:07.423Z,2.10
2019-06-01T12:10:36.734Z,2.40
2019-06-01T12:13:06.001Z,8.43
2019-06-01T12:15:36.185Z,10.80
2019-06-01T12:18:05.591Z,5.00
2019-06-01T12:20:34.781Z,3.63
2019-06-01T12:23:03.910Z,4.93
2019-06-01T12:25:33.006Z,1.90
2019-06-01T12:28:02.171Z,3.77
2019-06-01T12:30:31.607Z,4.57
2019-06-01T12:33:00.678Z,4.23
2019-06-01T12:35:29.855Z,2.93
2019-06-01T12:38:06.053Z,2.80
2019-06-01T12:40:29.771Z,3.33
2019-06-01T12:42:58.822Z,8.57
2019-06-01T12:45:27.939Z,2.30
2019-06-01T12:47:58.619Z,2.73
2019-06-01T12:50:27.752Z,4.70
2019-06-01T12:52:56.788Z,4.13
2019-06-01T12:55:25.883Z,2.70
2019-06-01T12:57:54.885Z,3.43
2019-06-01T13:00:24.230Z,5.40
2019-06-01T13:03:03.291Z,2.00
2019-06-01T13:05:24.040Z,3.37
2019-06-01T13:08:01.827Z,3.50
2019-06-01T13:10:23.761Z,2.90
2019-06-01T13:12:52.835Z,3.90
2019-06-01T13:15:22.407Z,3.50
2019-06-01T13:17:51.557Z,4.90
2019-06-01T13:20:20.701Z,2.73
2019-06-01T13:22:50.034Z,2.30
2019-06-01T13:25:19.271Z,2.57
2019-06-01T13:27:48.837Z,4.27
2019-06-01T13:30:18.554Z,3.23
2019-06-01T13:32:48.603Z,5.50
2019-06-01T13:35:17.935Z,3.90
2019-06-01T13:37:47.132Z,2.57
2019-06-01T13:40:16.409Z,2.30
2019-06-01T13:42:46.772Z,1.90
2019-06-01T13:45:16.210Z,3.30
2019-06-01T13:47:45.435Z,2.53
2019-06-01T13:50:14.834Z,5.63
2019-06-01T13:52:43.991Z,2.60
2019-06-01T13:55:13.292Z,2.70
2019-06-01T13:57:42.443Z,2.30
2019-06-01T14:00:15.388Z,2.57
2019-06-01T14:02:42.813Z,2.50
2019-06-01T14:05:12.548Z,2.10
2019-06-01T14:07:41.588Z,7.37
2019-06-01T14:10:10.866Z,3.77
2019-06-01T14:12:39.938Z,3.77
2019-06-01T14:15:09.344Z,2.80
2019-06-01T14:17:38.443Z,3.17
2019-06-01T14:20:07.657Z,2.60
2019-06-01T14:22:36.743Z,2.30
2019-06-01T14:25:12.636Z,2.53
2019-06-01T14:27:36.796Z,2.90
2019-06-01T14:30:06.808Z,4.80
2019-06-01T14:32:35.868Z,2.60
2019-06-01T14:35:06.698Z,2.93
2019-06-01T14:37:35.788Z,2.70
2019-06-01T14:40:05.304Z,2.27
2019-06-01T14:42:34.520Z,6.80
2019-06-01T14:45:03.917Z,2.70
2019-06-01T14:47:33.272Z,2.27
2019-06-01T14:50:02.343Z,2.70
2019-06-01T14:52:35.108Z,2.87
2019-06-01T14:55:02.104Z,3.50
2019-06-01T14:57:31.558Z,2.87
2019-06-01T15:00:00.698Z,7.03
2019-06-01T15:02:29.863Z,2.03
2019-06-01T15:04:58.952Z,3.17
2019-06-01T15:07:28.063Z,2.40
2019-06-01T15:09:58.447Z,2.27
2019-06-01T15:12:27.512Z,7.00
2019-06-01T15:14:57.566Z,4.50
2019-06-01T15:17:26.732Z,5.30
2019-06-01T15:19:56.190Z,2.60
2019-06-01T15:22:25.242Z,2.57
2019-06-01T15:24:54.598Z,2.90
2019-06-01T15:27:23.707Z,2.70
2019-06-01T15:29:53.172Z,4.90
2019-06-01T15:32:22.158Z,2.10
2019-06-01T15:34:52.317Z,2.13
2019-06-01T15:37:21.600Z,3.00
2019-06-01T15:39:50.850Z,6.40
2019-06-01T15:42:20.028Z,2.40
2019-06-01T15:44:49.136Z,2.30
2019-06-01T15:47:18.209Z,1.97
2019-06-01T15:49:47.311Z,2.50
2019-06-01T15:52:16.333Z,3.77
2019-06-01T15:54:45.476Z,1.97
2019-06-01T15:57:14.509Z,1.90
2019-06-01T15:59:43.615Z,3.83
2019-06-01T16:02:12.761Z,3.23
2019-06-01T16:04:41.948Z,3.27
2019-06-01T16:07:11.042Z,3.13
2019-06-01T16:09:43.178Z,2.40
2019-06-01T16:12:10.814Z,4.10
2019-06-01T16:14:39.879Z,2.30
2019-06-01T16:17:08.947Z,2.67
2019-06-01T16:19:38.083Z,3.80
2019-06-01T16:22:07.222Z,2.13
2019-06-01T16:24:36.275Z,5.50
2019-06-01T16:27:05.532Z,3.43
2019-06-01T16:29:34.650Z,2.87
2019-06-01T16:32:05.066Z,2.00
2019-06-01T16:34:34.341Z,2.37
2019-06-01T16:37:03.521Z,2.43
2019-06-01T16:39:32.775Z,3.37
2019-06-01T16:42:02.233Z,2.57
2019-06-01T16:44:31.483Z,1.87
2019-06-01T16:47:02.335Z,3.30
2019-06-01T16:49:31.294Z,2.20
2019-06-01T16:52:01.345Z,1.87
2019-06-01T16:54:30.646Z,2.60
2019-06-01T16:56:59.927Z,3.53
2019-06-01T16:59:29.232Z,2.40
2019-06-01T17:01:58.989Z,3.90
2019-06-01T17:04:28.324Z,4.53
2019-06-01T17:06:58.563Z,2.87
2019-06-01T17:09:28.137Z,10.47
2019-06-01T17:12:03.185Z,3.47
2019-06-01T17:15:05.066Z,2.00
2019-06-01T17:17:34.119Z,3.37
2019-06-01T17:20:03.373Z,20.10
2019-06-01T17:22:32.307Z,13.57
2019-06-01T17:25:01.807Z,20.83
2019-06-01T17:27:31.313Z,35.30
2019-06-01T17:30:07.815Z,4.00
2019-06-01T17:32:33.635Z,2.30
2019-06-01T17:35:03.329Z,3.30
2019-06-01T17:37:32.768Z,2.40
2019-06-01T17:40:02.530Z,3.87
2019-06-01T17:42:31.620Z,2.37
2019-06-01T17:45:00.913Z,3.23
2019-06-01T17:47:30.056Z,6.70
2019-06-01T17:49:59.154Z,6.13
2019-06-01T17:52:28.138Z,3.33
2019-06-01T17:54:57.303Z,3.20
2019-06-01T17:57:26.453Z,2.27
2019-06-01T17:59:55.603Z,3.77
2019-06-01T18:02:24.775Z,2.27
2019-06-01T18:04:53.861Z,3.90
2019-06-01T18:07:23.632Z,4.77
2019-06-01T18:09:53.027Z,3.33
2019-06-01T18:12:22.200Z,1.90
2019-06-01T18:14:51.264Z,5.63
2019-06-01T18:17:20.416Z,4.40
2019-06-01T18:19:49.587Z,2.63
2019-06-01T18:22:18.704Z,3.67
2019-06-01T18:24:47.867Z,2.90
2019-06-01T18:27:17.044Z,16.20
2019-06-01T18:29:48.637Z,3.97
2019-06-01T18:32:16.927Z,3.13
2019-06-01T18:34:46.328Z,3.10
2019-06-01T18:37:15.718Z,4.40
2019-06-01T18:39:47.917Z,5.13
2019-06-01T18:42:18.619Z,3.10
2019-06-01T18:44:46.363Z,5.50
2019-06-01T18:47:31.477Z,5.23
2019-06-01T18:49:46.943Z,8.10
2019-06-01T18:52:16.127Z,7.70
2019-06-01T18:54:45.305Z,4.47
2019-06-01T18:57:20.494Z,4.13
2019-06-01T18:59:45.275Z,4.97
2019-06-01T19:02:14.651Z,8.13
2019-06-01T19:04:43.773Z,3.50
2019-06-01T19:07:13.348Z,7.20
2019-06-01T19:09:42.655Z,4.37
2019-06-01T19:12:11.680Z,4.10
2019-06-01T19:14:40.732Z,8.30
2019-06-01T19:17:10.347Z,8.10
2019-06-01T19:19:39.547Z,7.83
2019-06-01T19:22:08.682Z,7.17
2019-06-01T19:24:37.742Z,13.43
2019-06-01T19:27:06.748Z,7.60
2019-06-01T19:29:35.871Z,15.50
2019-06-01T19:32:06.647Z,9.80
2019-06-01T19:34:35.962Z,13.20
2019-06-01T19:37:05.114Z,13.37
2019-06-01T19:39:34.498Z,10.33
2019-06-01T19:42:03.690Z,11.33
2019-06-01T19:44:36.429Z,11.13
2019-06-01T19:47:03.608Z,16.00
2019-06-01T19:49:33.007Z,9.90
2019-06-01T19:52:02.087Z,14.43
2019-06-01T19:54:32.704Z,13.67
2019-06-01T19:57:01.884Z,15.00
2019-06-01T19:59:31.304Z,14.47
2019-06-01T20:02:00.482Z,11.13
2019-06-01T20:04:29.848Z,13.43
2019-06-01T20:06:58.951Z,7.67
2019-06-01T20:09:28.027Z,8.63
2019-06-01T20:12:01.941Z,11.70
2019-06-01T20:14:27.870Z,11.30
2019-06-01T20:16:57.031Z,10.10
2019-06-01T20:19:26.122Z,9.10
2019-06-01T20:21:55.199Z,8.90
2019-06-01T20:24:24.340Z,13.80
2019-06-01T20:26:53.448Z,11.37
2019-06-01T20:29:22.504Z,8.83
2019-06-01T20:31:51.674Z,8.63
2019-06-01T20:34:22.019Z,12.73
2019-06-01T20:36:51.299Z,9.80
2019-06-01T20:39:20.439Z,11.00
2019-06-01T20:41:49.510Z,13.37
2019-06-01T20:44:18.850Z,17.00
2019-06-01T20:46:48.063Z,18.43
2019-06-01T20:49:17.087Z,13.73
2019-06-01T20:51:46.102Z,14.37
2019-06-01T20:54:15.226Z,16.83
2019-06-01T20:56:44.306Z,13.50
2019-06-01T20:59:13.453Z,13.17
2019-06-01T21:01:42.539Z,15.90
2019-06-01T21:04:11.764Z,15.30
2019-06-01T21:06:40.836Z,12.03
2019-06-01T21:09:09.920Z,11.43
2019-06-01T21:11:39.044Z,11.13
2019-06-01T21:14:08.557Z,11.20
2019-06-01T21:16:38.027Z,11.63
2019-06-01T21:19:07.485Z,18.43
2019-06-01T21:21:36.485Z,13.20
2019-06-01T21:24:05.889Z,14.03
2019-06-01T21:26:34.947Z,13.43
2019-06-01T21:29:04.183Z,15.63
2019-06-01T21:31:33.300Z,12.50
2019-06-01T21:34:02.432Z,13.20
2019-06-01T21:36:31.664Z,16.30
2019-06-01T21:39:00.756Z,14.00
2019-06-01T21:41:30.144Z,15.03
2019-06-01T21:43:59.572Z,15.83
2019-06-01T21:46:28.969Z,27.93
2019-06-01T21:48:57.984Z,20.57
2019-06-01T21:51:27.098Z,17.80
2019-06-01T21:53:56.111Z,17.63
2019-06-01T21:56:25.706Z,15.40
2019-06-01T21:58:55.628Z,15.67
2019-06-01T22:01:24.941Z,14.60
2019-06-01T22:03:54.074Z,40.70
2019-06-01T22:06:23.421Z,14.57
2019-06-01T22:08:53.088Z,18.50
2019-06-01T22:11:23.535Z,12.43
2019-06-01T22:13:52.870Z,14.00
2019-06-01T22:16:21.890Z,16.00
2019-06-01T22:18:51.055Z,9.87
2019-06-01T22:21:20.198Z,12.80
2019-06-01T22:23:49.300Z,10.60
2019-06-01T22:26:19.787Z,13.90
2019-06-01T22:28:48.935Z,14.47
2019-06-01T22:31:18.306Z,14.47
2019-06-01T22:33:47.548Z,12.43
2019-06-01T22:36:16.655Z,14.43
2019-06-01T22:38:45.688Z,17.40
2019-06-01T22:41:14.761Z,12.73
2019-06-01T22:43:46.882Z,11.83
2019-06-01T22:46:15.304Z,10.73
2019-06-01T22:48:44.420Z,14.87
2019-06-01T22:51:13.552Z,15.77
2019-06-01T22:53:42.623Z,13.90
2019-06-01T22:56:12.113Z,10.17
2019-06-01T22:58:41.208Z,15.63
2019-06-01T23:01:10.340Z,15.80
2019-06-01T23:03:39.331Z,18.03
2019-06-01T23:06:08.520Z,9.83
2019-06-01T23:08:37.571Z,18.30
2019-06-01T23:11:06.736Z,12.30
2019-06-01T23:13:49.910Z,10.33
2019-06-01T23:16:06.760Z,11.93
2019-06-01T23:18:35.931Z,11.57
2019-06-01T23:21:05.164Z,13.27
2019-06-01T23:23:34.296Z,12.10
2019-06-01T23:26:03.473Z,12.57
2019-06-01T23:28:32.602Z,9.70
2019-06-01T23:31:01.639Z,10.90
2019-06-01T23:33:31.023Z,10.37
2019-06-01T23:36:00.185Z,11.90
2019-06-01T23:38:29.276Z,11.50
2019-06-01T23:40:58.455Z,12.63
2019-06-01T23:43:28.832Z,13.00
2019-06-01T23:45:58.026Z,11.03
2019-06-01T23:48:27.244Z,14.13
2019-06-01T23:50:56.285Z,11.63
2019-06-01T23:53:25.435Z,11.57
2019-06-01T23:55:54.566Z,10.80
2019-06-01T23:58:24.033Z,12.50
